• Join FlightAware (Why Join?)
  • Login
  • US Flag 
04:50AM EDT


 

Airport Tracker/Info


-or-


 

Live Flight TrackerFlight Track Log ✈ UCA4838 ✈ 06-Jun-2013 ✈ KROC - KEWR

Flight Track Log - Related Links

Times and Time Zones

All times are in EDT time to prevent confusion due to time zone crossing. See the UCA4838 flight status page for this flight to view local times or setup timezone preferences in your user account.

Time Position Orientation Groundspeed Altitude Reporting Facility
EDT Latitude Longitude Course Direction KTS MPH feet Rate Location/Type
06:02AM 43.1261 -77.6761 124° Southeast 139 160 1,100  Level Cleveland Center
06:03AM 43.1542 -77.6292 51° Northeast 161 185 2,300 1,080 Climbing Cleveland Center
06:04AM 43.1319 -77.5789 121° Southeast 168 193 3,500 1,020 Climbing Cleveland Center
06:05AM 43.1142 -77.5428 124° Southeast 180 207 4,200 1,260 Climbing Cleveland Center
06:06AM 43.0858 -77.4875 125° Southeast 185 213 5,800 1,440 Climbing Cleveland Center
06:07AM 42.8812 -77.1289 124° Southeast  Level FlightAware Approximate
06:07AM 43.0572 -77.4319 125° Southeast 185 213 7,100  Level Cleveland Center
06:08AM 43.0286 -77.3767 125° Southeast 185 213 8,400 1,200 Climbing Cleveland Center
06:09AM 42.9975 -77.3158 125° Southeast 185 213 9,500 960 Climbing Cleveland Center
06:10AM 42.9644 -77.2522 125° Southeast 190 219 10,400 900 Climbing Cleveland Center
06:11AM 42.9294 -77.1889 127° Southeast 195 224 11,300 900 Climbing Cleveland Center
06:12AM 42.8642 -77.0656 126° Southeast 214 246 13,000 600 Climbing New York Center
06:13AM 42.8242 -76.9911 126° Southeast 224 258 13,000 -60 Level New York Center
06:14AM 42.7850 -76.9056 122° Southeast 254 292 12,900 -60 Descending New York Center
06:15AM 42.7458 -76.8142 120° Southeast 266 306 12,900 900 Level New York Center
06:16AM 42.7125 -76.7350 120° Southeast 266 306 14,700 1,020 Climbing New York Center
06:17AM 42.6786 -76.6614 122° Southeast 253 291 15,000 120 Climbing New York Center
06:18AM 42.6378 -76.5753 123° Southeast 240 276 15,000  Level Boston Center
06:19AM 42.6031 -76.4969 121° Southeast 254 292 15,000  Level Boston Center
06:20AM 42.5625 -76.4097 122° Southeast 266 306 15,000 420 Level Boston Center
06:21AM 42.5278 -76.3283 120° Southeast 266 306 15,900 840 Climbing Boston Center
06:22AM 42.4947 -76.2558 122° Southeast 243 280 16,700 540 Climbing Boston Center
06:23AM 42.4636 -76.1892 122° Southeast 225 259 17,000 120 Climbing Boston Center
06:24AM 42.4286 -76.1142 122° Southeast 220 253 17,000  Level Boston Center
06:25AM 42.3894 -76.0275 121° Southeast 239 275 17,000  Level Boston Center
06:26AM 42.3544 -75.9494 121° Southeast 244 281 17,000  Level Boston Center
06:27AM 42.3133 -75.8600 122° Southeast 262 302 17,000  Level Boston Center
06:28AM 42.2725 -75.7681 121° Southeast 262 302 17,000  Level Boston Center
06:29AM 42.2392 -75.6933 121° Southeast 262 302 17,000  Level Boston Center
06:30AM 42.2000 -75.6044 121° Southeast 262 302 17,000  Level Boston Center
06:31AM 42.1606 -75.5239 123° Southeast 262 302 17,000  Level Boston Center
06:32AM 42.1211 -75.4408 123° Southeast 262 302 17,100  Climbing Boston Center
06:33AM 42.0814 -75.3550 122° Southeast 262 302 17,100 -240 Level Boston Center
06:34AM 42.0442 -75.2639 119° Southeast 267 307 16,700 -600 Descending Boston Center
06:35AM 42.0092 -75.1672 116° Southeast 277 319 16,000 -780 Descending Boston Center
06:36AM 41.9639 -75.0564 119° Southeast 298 343 15,200 -480 Descending Boston Center
06:37AM 41.9303 -74.9683 117° Southeast 298 343 15,100 -60 Descending Boston Center
06:39AM 41.8850 -74.8467 117° Southeast 285 328 15,100 -240 Level Boston Center
06:40AM 41.8475 -74.7506 118° Southeast 285 328 14,700 -1,020 Descending Boston Center
06:41AM 41.8033 -74.6569 122° Southeast 290 334 13,100 -1,740 Descending Boston Center
06:42AM 41.7286 -74.6461 174° South 261 300 11,300 -1,800 Descending Boston Center
06:43AM 41.6519 -74.6267 169° South 269 310 9,600 -1,620 Descending Boston Center
06:44AM 41.5750 -74.6183 175° South 280 322 8,100 -1,380 Descending Boston Center
06:45AM 41.5086 -74.6050 171° South 272 313 6,900 -1,020 Descending Boston Center
06:46AM 41.4314 -74.5969 176° South 265 305 6,100 -420 Descending Boston Center
06:47AM 41.3667 -74.6000 182° South 245 282 6,100 -60 Level New York TRACON
06:48AM 41.3000 -74.6167 191° South 249 287 6,000 -120 Descending New York TRACON
06:49AM 41.2500 -74.5500 135° Southeast 244 281 5,900 -360 Descending New York TRACON
06:50AM 41.2000 -74.5000 143° Southeast 252 290 5,400 -480 Descending New York TRACON
06:51AM 41.1500 -74.4333 135° Southeast 256 295 5,000 -240 Descending New York TRACON
06:52AM 41.1000 -74.3667 135° Southeast 248 285 5,000  Level New York TRACON
06:52AM 41.0500 -74.3167 143° Southeast 245 282 5,000  Level New York TRACON
06:53AM 41.0167 -74.2667 131° Southeast 240 276 5,000 -480 Level New York TRACON
06:54AM 40.9667 -74.2000 135° Southeast 225 259 4,200 -540 Descending New York TRACON
06:55AM 40.9333 -74.1333 123° Southeast 223 257 4,000 -600 Descending New York TRACON
06:56AM 40.8833 -74.1000 153° Southeast 224 258 3,000 -1,020 Descending New York TRACON